Latest Weather Observations for Kanagulk

IDV60801

Issued at 7:31 pm EST Wednesday 4 May 2016 (issued every 30 minutes, with the page automatically refreshed every 10 minutes)

About weather observations | Map of weather stations | Latest weather observations for VIC | Other Formats
Station Details ID: 079097 Name: KANAGULK Lat: -37.12 Lon: 141.80 Height: 188.8 m
Data from the previous 72 hours. | See also: Recent months at Kanagulk
Date/Time
EST
Temp
°C
App
Temp
°C
Dew
Point
Rel
Hum
%
Delta-T
°C
Wind Press
QNH
hPa
Press
MSL
hPa
Rain
since 9 am
mm
Dir
 
Spd
km/h
Gust
km/h
Spd
kts
Gust
kts
04/07:30pm 13.2 11.9 10.0 81 1.7 N 7 11 4 6 1015.6 1015.7 0.0
04/07:00pm 13.1 11.8 10.1 82 1.6 N 7 11 4 6 1015.3 1015.4 0.0
04/06:30pm 13.2 12.1 10.0 81 1.7 NNW 6 11 3 6 1015.1 1015.2 0.0
04/06:00pm 13.4 11.3 9.6 78 2.0 NW 11 15 6 8 1014.8 1014.8 0.0
04/05:30pm 13.4 10.8 9.3 76 2.1 NW 13 20 7 11 1014.6 1014.6 0.0
04/05:00pm 13.8 10.4 9.3 74 2.3 NW 17 28 9 15 1014.3 1014.3 0.0
04/04:30pm 14.8 10.9 8.7 67 3.1 NW 19 35 10 19 1014.2 1014.2 0.0
04/04:00pm 14.9 12.3 9.5 70 2.8 NNW 13 22 7 12 1014.0 1014.0 0.0
04/03:30pm 15.0 11.5 8.7 66 3.2 NW 17 30 9 16 1014.2 1014.2 0.0
04/03:00pm 15.0 12.6 8.5 65 3.3 NW 11 20 6 11 1014.2 1014.2 0.0
04/02:30pm 14.6 11.7 8.1 65 3.3 NW 13 22 7 12 1014.3 1014.3 0.0
04/02:00pm 14.9 11.6 7.9 63 3.5 NW 15 26 8 14 1014.3 1014.3 0.0
04/01:30pm 14.7 11.8 8.0 64 3.4 NW 13 22 7 12 1014.6 1014.6 0.0
04/01:00pm 14.8 11.5 8.1 64 3.4 NW 15 24 8 13 1014.8 1014.8 0.0
04/12:30pm 14.8 11.1 7.8 63 3.5 NW 17 24 9 13 1015.2 1015.3 0.0
04/12:00pm 14.1 11.2 8.1 67 3.0 NW 13 22 7 12 1015.5 1015.6 0.0
04/11:30am 14.5 10.9 8.2 66 3.2 NW 17 28 9 15 1015.8 1015.9 0.0
04/11:00am 14.3 11.3 9.1 71 2.7 NNW 15 22 8 12 1015.8 1015.9 0.0
04/10:30am 13.3 11.8 10.7 84 1.4 NNW 9 15 5 8 1015.8 1015.9 0.0
04/10:00am 11.6 9.6 10.3 92 0.7 NNW 11 17 6 9 1015.8 1015.9 0.0
04/09:30am 10.4 8.8 10.2 99 0.1 NW 9 17 5 9 1015.8 1015.9 0.0
04/09:00am 9.4 7.2 9.3 99 0.0 NW 11 17 6 9 1015.7 1015.8 2.0
04/08:30am 8.4 6.7 8.3 99 0.0 NNW 7 13 4 7 1015.4 1015.5 2.0
04/08:00am 7.4 5.6 7.3 99 0.0 NNW 6 7 3 4 1014.9 1014.9 2.0
04/07:30am 6.9 5.8 6.8 99 0.0 N 2 7 1 4 1014.5 1014.5 2.0
04/07:00am 6.1 5.2 6.0 99 0.0 CALM 0 0 0 0 1013.9 1013.9 2.0
04/06:30am 6.2 4.2 6.1 99 0.0 NNW 6 7 3 4 1013.7 1013.7 2.0
04/06:00am 5.9 3.6 5.8 99 0.0 NNW 7 9 4 5 1013.4 1013.4 2.0
04/05:30am 5.9 3.8 5.8 99 0.0 NNW 6 9 3 5 1012.9 1013.0 2.0
04/05:00am 6.3 3.7 6.2 99 0.0 NNW 9 11 5 6 1012.9 1013.0 2.0
04/04:30am 5.4 3.0 5.3 99 0.0 NNW 7 9 4 5 1012.3 1012.4 2.0
04/04:00am 5.5 3.1 5.4 99 0.0 NNW 7 9 4 5 1012.2 1012.3 2.0
04/03:30am 5.3 3.1 5.2 99 0.0 NNW 6 9 3 5 1012.1 1012.2 2.0
04/03:00am 5.2 3.0 5.1 99 0.0 NNW 6 7 3 4 1012.0 1012.1 2.0
04/02:30am 5.9 3.7 5.5 97 0.2 NW 6 7 3 4 1011.6 1011.7 2.0
04/02:00am 6.0 3.8 5.3 95 0.3 NNW 6 7 3 4 1011.4 1011.5 2.0
04/01:30am 7.2 5.1 6.5 95 0.3 NNW 7 11 4 6 1011.1 1011.2 2.0
04/01:00am 7.4 4.9 6.5 94 0.4 NW 9 11 5 6 1011.1 1011.2 2.0
04/12:30am 7.6 5.6 6.4 92 0.6 NW 6 7 3 4 1010.9 1011.0 2.0
04/12:00am 8.6 6.8 7.2 91 0.7 NW 6 13 3 7 1010.7 1010.8 2.0
 
Date/Time
EST
Temp
°C
App
Temp
°C
Dew
Point
Rel
Hum
%
Delta-T
°C
Wind Press
QNH
hPa
Press
MSL
hPa
Rain
since 9 am
mm
Dir
 
Spd
km/h
Gust
km/h
Spd
kts
Gust
kts
03/11:30pm 9.1 7.2 7.7 91 0.7 NW 7 13 4 7 1010.7 1010.8 2.0
03/11:00pm 9.0 7.1 7.6 91 0.7 WNW 7 17 4 9 1010.7 1010.8 2.0
03/10:30pm 9.3 7.1 7.7 90 0.8 WNW 9 15 5 8 1010.3 1010.3 2.0
03/10:00pm 9.9 7.7 7.8 87 1.0 WNW 9 15 5 8 1010.0 1010.0 2.0
03/09:30pm 10.3 8.0 7.5 83 1.4 WNW 9 13 5 7 1009.7 1009.7 1.8
03/09:00pm 10.6 7.5 7.1 79 1.7 WNW 13 24 7 13 1009.3 1009.3 1.8
03/08:30pm 10.5 8.3 7.7 83 1.4 WNW 9 17 5 9 1008.9 1008.9 1.8
03/08:00pm 9.9 8.1 8.0 88 0.9 WNW 7 11 4 6 1008.3 1008.3 1.8
03/07:30pm 11.0 7.4 8.4 84 1.3 W 17 33 9 18 1008.0 1008.0 1.8
03/07:00pm 11.9 10.2 8.4 79 1.8 NW 7 13 4 7 1007.1 1007.2 1.4
03/06:30pm 12.1 9.9 8.0 76 2.0 WNW 9 15 5 8 1006.6 1006.7 1.4
03/06:00pm 12.2 9.2 7.7 74 2.2 W 13 24 7 13 1006.2 1006.3 1.4
03/05:30pm 12.7 8.9 7.6 71 2.5 W 17 35 9 19 1005.6 1005.6 1.4
03/05:00pm 12.9 9.1 7.6 70 2.6 W 17 30 9 16 1005.0 1005.0 1.4
03/04:30pm 13.0 9.8 8.3 73 2.4 WNW 15 24 8 13 1004.5 1004.5 1.4
03/04:00pm 12.6 10.3 10.3 86 1.2 W 13 32 7 17 1004.4 1004.4 1.4
03/03:30pm 13.2 9.2 8.9 75 2.2 W 20 35 11 19 1003.6 1003.6 1.2
03/03:00pm 14.5 12.3 10.7 78 2.0 W 13 22 7 12 1003.1 1003.1 0.8
03/02:30pm 14.7 11.5 11.1 79 1.9 W 19 32 10 17 1002.8 1002.8 0.8
03/02:00pm 14.5 12.3 13.4 93 0.6 W 17 32 9 17 1002.8 1002.8 0.8
03/01:30pm 14.0 9.2 11.5 85 1.3 W 28 44 15 24 1002.3 1002.3 0.8
03/01:21pm 15.5 10.4 10.5 72 2.7 W 28 46 15 25 1001.9 1002.0 0.6
03/01:00pm 15.4 11.4 11.8 79 2.0 W 24 56 13 30 1001.9 1002.0 0.6
03/12:31pm 16.1 11.3 11.5 74 2.5 WNW 28 46 15 25 1001.6 1001.7 0.4
03/12:30pm 16.2 11.8 11.8 75 2.4 WNW 26 46 14 25 1001.5 1001.6 0.4
03/12:04pm 14.7 10.5 13.6 93 0.6 WNW 28 50 15 27 1001.7 1001.8 0.4
03/12:00pm 14.6 10.9 14.0 96 0.3 WNW 26 50 14 27 1001.8 1001.9 0.4
03/11:30am 15.4 11.6 14.6 95 0.5 NW 28 50 15 27 1001.4 1001.4 0.2
03/11:10am 14.0 9.9 13.7 98 0.2 NW 28 46 15 25 1001.7 1001.8 0.2
03/11:00am 14.2 10.8 13.7 97 0.3 NNW 24 46 13 25 1001.4 1001.4 0.2
03/10:30am 13.7 10.2 13.4 98 0.2 NW 24 39 13 21 1001.6 1001.7 0.2
03/10:00am 13.7 9.0 11.9 89 1.0 NW 28 56 15 30 1002.0 1002.1 0.0
03/09:30am 14.7 9.6 10.7 77 2.1 NW 28 48 15 26 1001.5 1001.6 0.0
03/09:00am 14.5 9.4 10.7 78 2.0 NNW 28 46 15 25 1001.3 1001.3 0.8
03/08:30am 14.0 9.6 10.4 79 1.9 NNW 24 39 13 21 1001.7 1001.8 0.8
03/08:00am 13.9 9.5 10.3 79 1.9 NNW 24 39 13 21 1001.8 1001.9 0.8
03/07:30am 14.1 9.3 10.3 78 2.0 NNW 26 52 14 28 1001.6 1001.7 0.8
03/07:10am 13.9 8.7 10.1 78 2.0 NNW 28 52 15 28 1001.8 1001.9 0.8
03/07:00am 13.9 9.5 10.3 79 1.9 NNW 24 43 13 23 1001.9 1002.0 0.8
03/06:30am 14.0 9.2 10.4 79 1.9 NNW 26 43 14 23 1002.4 1002.4 0.8
03/06:00am 14.0 10.0 10.6 80 1.8 NNW 22 43 12 23 1002.6 1002.6 0.8
03/05:30am 13.8 8.8 10.8 82 1.6 NNW 28 43 15 23 1002.5 1002.5 0.8
03/05:00am 14.0 9.7 10.8 81 1.7 NNW 24 43 13 23 1002.5 1002.5 0.8
03/04:30am 14.1 9.4 10.5 79 1.9 NNW 26 41 14 22 1002.7 1002.7 0.8
03/04:00am 14.2 10.2 10.6 79 1.9 NNW 22 37 12 20 1003.1 1003.1 0.8
03/03:30am 13.6 10.1 10.8 83 1.5 NNW 20 35 11 19 1003.3 1003.3 0.8
03/03:00am 13.5 10.0 11.0 85 1.3 NNW 20 41 11 22 1003.7 1003.7 0.8
03/02:30am 13.7 9.9 11.2 85 1.3 NNW 22 35 12 19 1004.3 1004.3 0.8
03/02:00am 14.0 9.9 11.3 84 1.5 NNW 24 44 13 24 1004.9 1004.9 0.8
03/01:30am 14.3 10.2 11.3 82 1.6 NNW 24 41 13 22 1005.3 1005.3 0.8
03/01:00am 14.5 10.8 11.5 82 1.6 NNW 22 39 12 21 1005.5 1005.5 0.8
03/12:30am 14.5 10.4 11.5 82 1.6 NNW 24 39 13 21 1005.8 1005.8 0.8
03/12:00am 14.2 11.0 11.4 83 1.5 NNW 19 32 10 17 1006.2 1006.3 0.8
 
Date/Time
EST
Temp
°C
App
Temp
°C
Dew
Point
Rel
Hum
%
Delta-T
°C
Wind Press
QNH
hPa
Press
MSL
hPa
Rain
since 9 am
mm
Dir
 
Spd
km/h
Gust
km/h
Spd
kts
Gust
kts
02/11:30pm 13.5 11.0 12.2 92 0.7 NNW 17 28 9 15 1006.6 1006.7 0.8
02/11:00pm 13.1 8.0 11.8 92 0.7 NW 30 44 16 24 1007.3 1007.4 0.6
02/10:53pm 13.8 8.8 11.0 83 1.5 NW 28 46 15 25 1007.4 1007.5 0.0
02/10:30pm 14.8 10.3 10.2 74 2.4 NW 24 43 13 23 1007.3 1007.4 0.0
02/10:16pm 15.0 9.7 9.8 71 2.7 NW 28 56 15 30 1007.7 1007.7 0.0
02/10:00pm 15.8 11.1 9.2 65 3.4 NNW 24 39 13 21 1007.3 1007.4 0.0
02/09:30pm 15.7 11.8 9.4 66 3.3 NNW 20 33 11 18 1007.3 1007.4 0.0
02/09:00pm 15.1 11.9 9.9 71 2.7 NNW 17 30 9 16 1007.7 1007.7 0.0
02/08:30pm 14.8 11.1 9.6 71 2.7 NNW 19 32 10 17 1007.7 1007.7 0.0
02/08:00pm 15.5 11.3 9.6 68 3.1 NW 22 43 12 23 1008.0 1008.0 0.0
02/07:30pm 15.5 11.2 9.4 67 3.2 NW 22 41 12 22 1008.3 1008.3 0.0
02/07:00pm 15.7 12.2 8.9 64 3.5 NW 17 30 9 16 1008.1 1008.1 0.0
02/06:30pm 16.1 11.2 8.6 61 3.9 NW 24 43 13 23 1007.9 1007.9 0.0
02/06:00pm 16.2 11.3 8.4 60 4.0 NW 24 44 13 24 1007.8 1007.8 0.0
02/05:30pm 16.5 12.2 8.0 57 4.3 NW 20 33 11 18 1007.8 1007.8 0.0
02/05:00pm 16.8 11.7 7.7 55 4.6 NNW 24 39 13 21 1007.8 1007.8 0.0
02/04:30pm 17.0 12.3 7.6 54 4.8 NNW 22 41 12 22 1008.0 1008.0 0.0
02/04:00pm 17.0 12.0 7.9 55 4.7 NW 24 43 13 23 1008.2 1008.2 0.0
02/03:30pm 17.9 12.9 8.2 53 5.0 NW 24 39 13 21 1008.4 1008.4 0.0
02/03:00pm 16.7 11.6 7.6 55 4.6 NW 24 48 13 26 1008.8 1008.8 0.0
02/02:30pm 16.8 11.6 7.2 53 4.8 NW 24 43 13 23 1008.9 1008.9 0.0
02/02:00pm 16.8 11.2 7.2 53 4.8 NW 26 46 14 25 1009.1 1009.1 0.0
02/01:30pm 17.8 12.2 7.2 50 5.4 NW 26 43 14 23 1009.5 1009.5 0.0
02/01:00pm 15.9 10.6 6.9 55 4.5 NW 24 46 13 25 1010.0 1010.0 0.0
02/12:30pm 16.0 10.3 6.7 54 4.6 NNW 26 46 14 25 1010.3 1010.3 0.0
02/12:05pm 16.0 10.0 7.0 55 4.5 NW 28 48 15 26 1010.7 1010.8 0.0
02/12:00pm 16.3 10.7 7.3 55 4.5 NW 26 48 14 26 1010.8 1010.9 0.0
02/11:59am 16.2 10.3 7.4 56 4.4 NW 28 48 15 26 1010.8 1010.9 0.0
02/11:30am 15.5 10.7 7.3 58 4.1 NW 22 43 12 23 1011.3 1011.4 0.0
02/11:05am 15.1 9.0 6.7 57 4.1 NW 28 46 15 25 1011.4 1011.5 0.0
02/11:00am 15.5 9.9 7.0 57 4.2 NW 26 43 14 23 1011.5 1011.6 0.0
02/10:30am 15.0 10.5 7.1 59 3.9 NNW 20 35 11 19 1011.8 1011.9 0.0
02/10:00am 14.3 10.1 7.4 63 3.4 NNW 19 32 10 17 1012.0 1012.1 0.0
02/09:30am 13.6 9.9 7.8 68 2.9 NNW 17 28 9 15 1012.4 1012.5 0.0
02/09:00am 12.0 8.9 7.1 72 2.4 NNW 13 20 7 11 1012.7 1012.8 0.2
02/08:30am 11.1 8.3 6.8 75 2.1 NNW 11 20 6 11 1012.8 1012.9 0.2
02/08:00am 9.6 7.2 6.9 83 1.3 N 9 13 5 7 1012.7 1012.8 0.2
02/07:30am 8.9 5.9 6.2 83 1.3 NNW 11 17 6 9 1012.8 1012.9 0.2
02/07:00am 8.8 6.2 6.1 83 1.3 NNW 9 13 5 7 1012.7 1012.8 0.2
02/06:30am 8.9 6.3 6.2 83 1.3 NNW 9 17 5 9 1013.0 1013.1 0.2
02/06:00am 9.0 6.4 6.1 82 1.3 NNW 9 15 5 8 1013.0 1013.1 0.2
02/05:30am 9.2 6.7 6.5 83 1.3 NNW 9 15 5 8 1013.3 1013.3 0.2
02/05:00am 9.0 6.5 6.6 85 1.1 NNW 9 17 5 9 1013.6 1013.6 0.2
02/04:30am 8.6 6.4 6.1 84 1.2 NNW 7 11 4 6 1013.7 1013.7 0.2
02/04:00am 8.4 5.7 5.7 83 1.2 NNW 9 17 5 9 1013.9 1013.9 0.2
02/03:30am 8.4 5.6 5.3 81 1.4 NW 9 15 5 8 1014.1 1014.1 0.2
02/03:00am 8.1 5.3 5.2 82 1.3 NNW 9 15 5 8 1014.2 1014.2 0.2
02/02:30am 8.2 5.5 5.7 84 1.1 NNW 9 13 5 7 1014.5 1014.5 0.2
02/02:00am 8.4 5.8 6.2 86 1.0 NNW 9 15 5 8 1015.0 1015.1 0.2
02/01:30am 7.8 5.6 6.1 89 0.8 NNW 7 13 4 7 1014.9 1014.9 0.2
02/01:00am 7.3 4.9 5.4 88 0.9 NNW 7 13 4 7 1015.2 1015.3 0.2
02/12:30am 8.0 5.4 6.3 89 0.8 NNW 9 13 5 7 1015.4 1015.5 0.2
02/12:00am 7.3 5.0 5.9 91 0.6 NNW 7 15 4 8 1015.8 1015.9 0.2
 
Date/Time
EST
Temp
°C
App
Temp
°C
Dew
Point
Rel
Hum
%
Delta-T
°C
Wind Press
QNH
hPa
Press
MSL
hPa
Rain
since 9 am
mm
Dir
 
Spd
km/h
Gust
km/h
Spd
kts
Gust
kts
01/11:30pm 6.8 4.4 5.3 90 0.7 NNW 7 11 4 6 1016.1 1016.2 0.2
01/11:00pm 6.6 4.4 5.2 91 0.6 NNW 6 11 3 6 1016.4 1016.5 0.2
01/10:30pm 6.6 4.2 5.1 90 0.7 NNW 7 9 4 5 1016.5 1016.6 0.2
01/10:00pm 7.2 5.0 5.2 87 0.9 NNW 6 7 3 4 1016.6 1016.7 0.2
01/09:30pm 8.3 6.0 5.6 83 1.2 NW 7 9 4 5 1016.6 1016.7 0.2
01/09:00pm 8.8 6.5 5.5 80 1.5 NNW 7 9 4 5 1016.7 1016.8 0.2
01/08:30pm 9.4 7.1 5.8 78 1.7 NW 7 11 4 6 1016.6 1016.7 0.2
01/08:00pm 9.4 8.5 6.1 80 1.5 CALM 0 0 0 0 1016.4 1016.5 0.2

Other Formats:

Comma delimited format used in spreadsheet applications
http://www.bom.gov.au/fwo/IDV60801/IDV60801.95827.axf

JavaScript Object Notation format (JSON) in row-major order
http://www.bom.gov.au/fwo/IDV60801/IDV60801.95827.json